Time;durP1;ratioP1;P1;durP2;ratioP2;P2;SDS_P1;SDS_P2;PMS_P1;PMS_P2;Temp;Humidity;BMP_temperature;BMP_pressure;BME280_temperature;BME280_humidity;BME280_pressure;Samples;Min_cycle;Max_cycle;Signal;HPM_P1;HPM_P2
2022/06/18 00:01:57;;;;;;;2.00;1.27;;;17.50;99.90;;;;;;8374356;28;20209;-67
2022/06/18 00:05:58;;;;;;;2.47;1.37;;;17.50;99.90;;;;;;8364999;28;20205;-66
2022/06/18 00:10:04;;;;;;;2.80;1.43;;;17.60;99.90;;;;;;8362874;28;20185;-66
2022/06/18 00:14:05;;;;;;;1.63;1.20;;;17.60;99.90;;;;;;8372166;28;20184;-67
2022/06/18 00:18:10;;;;;;;1.90;1.23;;;17.70;99.90;;;;;;8370883;28;20187;-67
2022/06/18 00:22:13;;;;;;;2.63;1.60;;;17.80;99.90;;;;;;8366436;28;20193;-66
2022/06/18 00:26:15;;;;;;;2.67;1.40;;;17.80;99.90;;;;;;8366862;28;20189;-67
2022/06/18 00:30:19;;;;;;;2.10;1.30;;;17.90;99.90;;;;;;8369563;28;20210;-67
2022/06/18 00:34:20;;;;;;;3.00;1.20;;;17.90;99.90;;;;;;8371028;28;20177;-66
2022/06/18 00:38:28;;;;;;;3.17;1.43;;;18.00;99.90;;;;;;8362109;28;20605;-64
2022/06/18 00:42:30;;;;;;;1.27;1.00;;;18.00;99.90;;;;;;8366419;28;20201;-65
2022/06/18 00:47:17;;;;;;;1.53;1.20;;;18.00;99.90;;;;;;8366270;28;20186;-66
2022/06/18 00:51:49;;;;;;;2.10;1.33;;;18.00;99.90;;;;;;8268801;28;20167;-66
2022/06/18 00:56:00;;;;;;;2.83;1.20;;;18.10;99.90;;;;;;8321827;28;20229;-66
2022/06/18 01:00:07;;;;;;;1.40;1.30;;;18.10;99.90;;;;;;8372252;28;20177;-64
2022/06/18 01:04:27;;;;;;;2.00;1.23;;;18.10;99.90;;;;;;8369362;28;20197;-65
2022/06/18 01:08:31;;;;;;;3.40;1.10;;;18.20;99.90;;;;;;8365903;28;20189;-63
2022/06/18 01:12:32;;;;;;;1.97;1.30;;;18.20;99.90;;;;;;8371312;28;20184;-65
2022/06/18 01:16:34;;;;;;;2.00;1.30;;;18.20;99.90;;;;;;8369238;28;20211;-66
2022/06/18 01:20:46;;;;;;;2.83;1.33;;;18.20;99.90;;;;;;8368645;28;20181;-65
2022/06/18 01:24:47;;;;;;;1.70;1.10;;;18.30;99.90;;;;;;8367115;28;20213;-65
2022/06/18 01:28:48;;;;;;;1.63;1.27;;;18.30;99.90;;;;;;8369293;28;20198;-66
2022/06/18 01:32:52;;;;;;;1.63;1.10;;;18.30;99.90;;;;;;8367469;28;20398;-70
2022/06/18 01:36:53;;;;;;;1.97;1.23;;;18.30;99.90;;;;;;8362336;28;20178;-65
2022/06/18 01:41:49;;;;;;;2.97;1.03;;;18.30;99.90;;;;;;8364207;28;20211;-64
2022/06/18 01:45:29;;;;;;;1.87;1.00;;;18.30;99.90;;;;;;8364580;28;20209;-65
2022/06/18 01:49:38;;;;;;;2.03;1.40;;;18.30;99.90;;;;;;8376157;28;20255;-64
2022/06/18 01:53:44;;;;;;;3.07;1.30;;;18.30;99.90;;;;;;8366180;28;20232;-72
2022/06/18 01:57:51;;;;;;;1.83;1.10;;;18.30;99.90;;;;;;8361234;28;20189;-66
2022/06/18 02:01:52;;;;;;;2.43;1.10;;;18.20;99.90;;;;;;8368645;28;20205;-64
2022/06/18 02:05:53;;;;;;;2.93;1.30;;;18.20;99.90;;;;;;8363717;28;20291;-65
2022/06/18 02:10:02;;;;;;;1.97;1.20;;;18.20;99.90;;;;;;8361322;28;20188;-65
2022/06/18 02:14:06;;;;;;;1.30;1.00;;;18.20;99.90;;;;;;8373264;28;20247;-64
2022/06/18 02:18:11;;;;;;;2.13;1.13;;;18.20;99.90;;;;;;8363246;28;20268;-64
2022/06/18 02:22:13;;;;;;;1.87;1.23;;;18.10;99.90;;;;;;8367194;28;20192;-66
2022/06/18 02:26:14;;;;;;;1.87;1.30;;;18.10;99.90;;;;;;8366391;28;20181;-64
2022/06/18 02:30:18;;;;;;;1.50;1.00;;;18.10;99.90;;;;;;8369388;28;20197;-65
2022/06/18 02:34:22;;;;;;;1.37;1.10;;;18.10;99.90;;;;;;8372852;28;20189;-65
2022/06/18 02:38:23;;;;;;;1.80;1.30;;;18.00;99.90;;;;;;8382254;28;20205;-64
2022/06/18 02:42:27;;;;;;;1.47;0.97;;;18.00;99.90;;;;;;8367147;28;20181;-67
2022/06/18 02:46:27;;;;;;;2.43;1.40;;;18.00;99.90;;;;;;8366678;28;20189;-64
2022/06/18 02:50:32;;;;;;;2.70;1.20;;;18.10;99.90;;;;;;8364882;28;20173;-65
2022/06/18 02:54:34;;;;;;;1.90;1.10;;;18.10;99.90;;;;;;8368304;28;20189;-64
2022/06/18 02:58:42;;;;;;;1.83;1.13;;;18.10;99.90;;;;;;8377420;28;20193;-67
2022/06/18 03:02:43;;;;;;;1.73;1.00;;;18.10;99.90;;;;;;8373096;28;20213;-67
2022/06/18 03:06:44;;;;;;;1.33;1.10;;;18.20;99.90;;;;;;8378510;28;20182;-67
2022/06/18 03:15:04;;;;;;;1.73;1.20;;;18.30;99.90;;;;;;8368732;28;20195;-68
2022/06/18 03:19:05;;;;;;;1.53;1.10;;;18.30;99.90;;;;;;8368960;28;20196;-67
2022/06/18 03:23:08;;;;;;;1.40;1.00;;;18.40;99.90;;;;;;8369496;28;20255;-68
2022/06/18 03:27:11;;;;;;;1.13;1.00;;;18.40;99.90;;;;;;8373681;28;20205;-68
2022/06/18 03:31:12;;;;;;;1.67;1.37;;;18.40;99.90;;;;;;8374807;28;20208;-68
2022/06/18 03:35:13;;;;;;;3.13;1.20;;;18.50;99.90;;;;;;8368757;28;20182;-65
2022/06/18 03:39:14;;;;;;;1.37;1.20;;;18.50;99.90;;;;;;8370933;28;20196;-68
2022/06/18 03:43:15;;;;;;;1.67;1.17;;;18.60;99.90;;;;;;8373497;28;20223;-68
2022/06/18 03:47:18;;;;;;;1.80;1.20;;;18.60;99.90;;;;;;8370702;28;20274;-67
2022/06/18 03:51:20;;;;;;;1.47;1.00;;;18.60;99.90;;;;;;8375305;28;20242;-66
2022/06/18 03:55:21;;;;;;;1.60;1.30;;;18.80;99.90;;;;;;8364544;28;20225;-65
2022/06/18 03:59:22;;;;;;;1.87;1.00;;;18.80;99.90;;;;;;8374417;28;20186;-67
2022/06/18 04:03:23;;;;;;;1.87;1.07;;;18.90;99.90;;;;;;8372848;28;20356;-67
2022/06/18 04:07:25;;;;;;;1.43;1.30;;;19.00;99.90;;;;;;8370019;28;20276;-66
2022/06/18 04:11:26;;;;;;;1.80;1.10;;;19.10;99.90;;;;;;8363777;28;20264;-68
2022/06/18 04:15:27;;;;;;;1.80;1.10;;;19.20;99.90;;;;;;8365414;28;20186;-67
2022/06/18 04:19:28;;;;;;;2.60;1.10;;;19.30;99.90;;;;;;8369226;28;20184;-67
2022/06/18 04:23:29;;;;;;;1.73;1.10;;;19.50;99.90;;;;;;8364549;28;20348;-67
2022/06/18 04:27:30;;;;;;;2.23;1.10;;;19.70;99.90;;;;;;8372637;28;20204;-66
2022/06/18 04:31:31;;;;;;;2.50;1.10;;;20.10;99.90;;;;;;8370140;28;20240;-67
2022/06/18 04:35:32;;;;;;;2.63;1.40;;;20.50;99.90;;;;;;8371669;28;20185;-67
2022/06/18 04:39:33;;;;;;;1.67;1.17;;;20.60;98.20;;;;;;8364040;28;20181;-67
2022/06/18 04:43:33;;;;;;;2.53;1.40;;;20.70;91.30;;;;;;8370857;28;20676;-68
2022/06/18 04:47:35;;;;;;;2.43;1.20;;;20.80;95.00;;;;;;8365236;28;20215;-66
2022/06/18 04:51:35;;;;;;;2.57;1.00;;;21.60;56.90;;;;;;8367096;28;20311;-67
2022/06/18 04:55:36;;;;;;;2.90;1.20;;;22.80;1.00;;;;;;8375307;28;20185;-68
2022/06/18 04:59:38;;;;;;;1.37;1.00;;;24.00;1.00;;;;;;8369893;28;20193;-68
2022/06/18 05:03:39;;;;;;;2.00;0.90;;;25.20;1.00;;;;;;8372103;28;20214;-69
2022/06/18 05:07:40;;;;;;;1.40;0.90;;;26.00;1.00;;;;;;8364049;28;20201;-69
2022/06/18 05:11:42;;;;;;;1.30;1.20;;;25.70;1.00;;;;;;8366019;28;20189;-67
2022/06/18 05:15:43;;;;;;;2.17;1.10;;;25.00;1.00;;;;;;8364887;28;20180;-66
2022/06/18 05:19:45;;;;;;;1.70;1.00;;;24.50;1.00;;;;;;8369056;28;20181;-67
2022/06/18 05:23:45;;;;;;;2.10;1.07;;;24.20;1.00;;;;;;8362519;28;20215;-66
2022/06/18 05:27:47;;;;;;;2.33;1.17;;;24.10;1.00;;;;;;8366243;28;20209;-68
2022/06/18 05:31:48;;;;;;;1.70;1.00;;;24.00;1.00;;;;;;8367578;28;20190;-65
2022/06/18 05:35:49;;;;;;;2.60;1.10;;;24.00;1.00;;;;;;8367806;28;20185;-68
2022/06/18 05:39:49;;;;;;;3.17;0.80;;;24.00;1.00;;;;;;8364786;28;20190;-70
2022/06/18 05:43:50;;;;;;;0.77;0.70;;;23.90;1.00;;;;;;8369935;28;20271;-66
2022/06/18 05:47:51;;;;;;;1.33;0.80;;;24.00;1.00;;;;;;8368106;28;20279;-70
2022/06/18 05:51:52;;;;;;;2.43;0.90;;;24.00;1.00;;;;;;8363615;28;20201;-69
2022/06/18 05:55:52;;;;;;;2.43;1.97;;;24.00;1.00;;;;;;8360589;28;20255;-67
2022/06/18 05:59:53;;;;;;;7.40;6.70;;;24.00;1.00;;;;;;8364873;28;20185;-66
2022/06/18 06:03:54;;;;;;;33.87;30.47;;;24.10;1.00;;;;;;8362486;28;20217;-65
2022/06/18 06:07:55;;;;;;;59.23;53.53;;;24.20;1.00;;;;;;8366424;28;20176;-67
2022/06/18 06:11:56;;;;;;;27.53;22.67;;;24.20;1.00;;;;;;8364304;28;20197;-65
2022/06/18 06:15:57;;;;;;;15.07;10.87;;;24.30;1.00;;;;;;8367060;28;20204;-69
2022/06/18 06:20:07;;;;;;;6.60;5.83;;;24.40;1.00;;;;;;8364814;28;20249;-67
2022/06/18 06:24:08;;;;;;;2.50;1.70;;;24.60;1.00;;;;;;8359163;28;20264;-67
2022/06/18 06:28:22;;;;;;;0.80;0.70;;;24.70;1.00;;;;;;8364155;28;20200;-67
2022/06/18 06:32:23;;;;;;;1.23;0.80;;;24.90;1.00;;;;;;8375333;28;20209;-66
2022/06/18 06:36:23;;;;;;;1.90;0.83;;;24.90;1.00;;;;;;8373602;28;20268;-66
2022/06/18 06:40:24;;;;;;;3.17;0.80;;;25.00;1.00;;;;;;8367051;28;20245;-66
2022/06/18 06:44:25;;;;;;;1.27;0.70;;;25.20;1.00;;;;;;8367269;28;20212;-67
2022/06/18 06:48:26;;;;;;;0.80;0.60;;;25.40;1.00;;;;;;8370558;28;20181;-67
2022/06/18 06:52:27;;;;;;;0.97;0.60;;;25.50;1.00;;;;;;8369279;28;20189;-66
2022/06/18 07:00:53;;;;;;;1.40;0.50;;;25.70;1.00;;;;;;8362806;28;20221;-66
2022/06/18 07:04:54;;;;;;;2.73;0.80;;;25.80;1.00;;;;;;8371627;28;20224;-71
2022/06/18 07:08:55;;;;;;;1.27;0.80;;;25.80;1.00;;;;;;8377032;28;20208;-67
2022/06/18 07:12:56;;;;;;;3.03;0.77;;;25.90;1.00;;;;;;8366727;28;20181;-68
2022/06/18 07:16:57;;;;;;;1.97;0.77;;;26.10;1.00;;;;;;8370106;28;20192;-68
2022/06/18 07:20:58;;;;;;;1.47;0.70;;;26.10;1.00;;;;;;8368679;28;20205;-67
2022/06/18 07:25:00;;;;;;;1.23;0.60;;;26.30;1.00;;;;;;8369498;28;20216;-67
2022/06/18 07:29:01;;;;;;;1.00;0.60;;;26.50;1.00;;;;;;8365304;28;20217;-65
2022/06/18 07:33:02;;;;;;;4.43;0.70;;;26.60;1.00;;;;;;8368801;28;20177;-69
2022/06/18 07:37:03;;;;;;;1.85;0.70;;;26.70;1.00;;;;;;8370201;28;20252;-66
2022/06/18 07:41:05;;;;;;;1.23;0.60;;;26.80;1.00;;;;;;8368203;28;20174;-67
2022/06/18 07:45:14;;;;;;;2.33;0.70;;;26.90;1.00;;;;;;8370667;28;20209;-66
2022/06/18 07:49:18;;;;;;;2.50;1.13;;;27.00;1.00;;;;;;8378085;28;20181;-67
2022/06/18 07:53:23;;;;;;;2.00;0.82;;;27.20;1.00;;;;;;8379654;28;20184;-69
2022/06/18 07:57:24;;;;;;;0.82;0.40;;;27.10;1.00;;;;;;8373473;28;20192;-66
2022/06/18 08:01:25;;;;;;;0.98;0.55;;;27.30;1.00;;;;;;8366834;28;20276;-66
2022/06/18 08:05:27;;;;;;;0.95;0.55;;;27.40;1.00;;;;;;8372088;28;20289;-69
2022/06/18 08:09:28;;;;;;;1.83;0.73;;;27.50;1.00;;;;;;8370069;28;20186;-69
2022/06/18 08:13:29;;;;;;;1.42;0.68;;;27.60;1.00;;;;;;8363632;28;20219;-72
2022/06/18 08:17:30;;;;;;;1.27;0.60;;;27.80;1.00;;;;;;8362507;28;20193;-69
2022/06/18 08:21:38;;;;;;;2.92;0.52;;;27.90;1.00;;;;;;8371906;28;20185;-68
2022/06/18 08:25:41;;;;;;;3.13;0.55;;;27.90;1.00;;;;;;8371622;28;20309;-68
2022/06/18 08:29:43;;;;;;;1.65;0.75;;;27.90;1.00;;;;;;8371710;28;20193;-67
2022/06/18 08:33:43;;;;;;;0.55;0.52;;;27.90;1.00;;;;;;8370908;28;20196;-67
2022/06/18 08:37:45;;;;;;;1.00;0.70;;;28.00;1.00;;;;;;8367034;28;20178;-70
2022/06/18 08:41:49;;;;;;;1.08;0.40;;;28.10;1.00;;;;;;8369283;28;20197;-66
2022/06/18 08:46:01;;;;;;;1.15;0.50;;;28.40;1.00;;;;;;8374677;28;20213;-66
2022/06/18 08:50:04;;;;;;;1.33;0.70;;;28.50;1.00;;;;;;8370616;28;20178;-69
2022/06/18 08:54:36;;;;;;;0.95;0.65;;;28.60;1.00;;;;;;8366123;28;20181;-66
2022/06/18 08:58:46;;;;;;;1.30;0.65;;;28.60;1.00;;;;;;8364811;28;20192;-68
2022/06/18 09:03:20;;;;;;;1.02;0.65;;;28.50;1.00;;;;;;8372440;28;20238;-69
2022/06/18 09:07:43;;;;;;;1.23;0.70;;;28.70;1.00;;;;;;8365880;28;20177;-68
2022/06/18 09:11:56;;;;;;;2.10;0.60;;;28.60;99.90;;;;;;8364554;28;20177;-69
2022/06/18 09:16:00;;;;;;;1.45;0.80;;;28.80;1.00;;;;;;8373456;28;20177;-70
2022/06/18 09:20:04;;;;;;;2.22;0.63;;;29.20;1.00;;;;;;8370201;28;20191;-66
2022/06/18 09:24:07;;;;;;;1.05;0.70;;;29.30;99.90;;;;;;8362638;28;20198;-71
2022/06/18 09:28:14;;;;;;;2.10;0.90;;;29.40;99.90;;;;;;8364209;28;20202;-67
2022/06/18 09:32:22;;;;;;;1.20;0.60;;;29.50;99.90;;;;;;8370509;28;20180;-63
2022/06/18 09:36:33;;;;;;;3.33;0.73;;;29.60;99.90;;;;;;8364738;28;20192;-67
2022/06/18 09:40:38;;;;;;;2.40;0.95;;;29.80;99.90;;;;;;8365269;28;20185;-68
2022/06/18 09:44:52;;;;;;;1.17;0.80;;;29.90;99.90;;;;;;8363592;28;20224;-67
2022/06/18 09:48:53;;;;;;;2.55;1.10;;;29.80;99.90;;;;;;8370214;28;20212;-68
2022/06/18 09:53:25;;;;;;;0.88;0.60;;;29.70;99.90;;;;;;8366951;28;20173;-64
2022/06/18 09:57:32;;;;;;;0.98;0.65;;;29.90;99.90;;;;;;8350536;28;20204;-66
2022/06/18 10:01:45;;;;;;;2.60;0.70;;;30.20;99.90;;;;;;8368458;28;20190;-67
2022/06/18 10:10:19;;;;;;;3.60;1.08;;;30.40;99.90;;;;;;8364009;28;20268;-67
2022/06/18 10:14:22;;;;;;;1.83;0.75;;;30.20;99.90;;;;;;8363781;28;20207;-64
2022/06/18 10:18:58;;;;;;;3.75;0.70;;;30.30;99.90;;;;;;8366789;28;20192;-64
2022/06/18 10:23:06;;;;;;;1.63;0.70;;;30.40;99.90;;;;;;8369370;28;20213;-63
2022/06/18 10:27:15;;;;;;;1.00;0.70;;;30.20;99.90;;;;;;8365380;28;20209;-67
2022/06/18 10:31:45;;;;;;;3.33;0.75;;;30.40;99.90;;;;;;8365528;28;20251;-68
2022/06/18 10:35:54;;;;;;;0.75;0.60;;;30.60;99.90;;;;;;8360382;28;20236;-69
2022/06/18 10:40:21;;;;;;;2.88;0.80;;;30.80;99.90;;;;;;8364070;28;20183;-67
2022/06/18 10:44:40;;;;;;;2.53;0.90;;;30.80;99.90;;;;;;8364660;28;20217;-66
2022/06/18 10:48:50;;;;;;;0.47;0.40;;;30.60;99.90;;;;;;8368104;28;20194;-65
2022/06/18 10:53:06;;;;;;;2.30;0.70;;;30.60;99.90;;;;;;8360126;28;20265;-65
2022/06/18 10:57:22;;;;;;;0.82;0.52;;;30.60;99.90;;;;;;8365691;28;20250;-68
2022/06/18 11:01:34;;;;;;;0.70;0.60;;;30.70;99.90;;;;;;8372835;28;20268;-68
2022/06/18 11:05:37;;;;;;;1.50;0.77;;;30.90;99.90;;;;;;8364498;28;20293;-69
2022/06/18 11:09:44;;;;;;;1.35;0.68;;;30.90;99.90;;;;;;8364361;28;20189;-68
2022/06/18 11:13:48;;;;;;;2.22;0.93;;;31.10;99.90;;;;;;8374553;28;20276;-68
2022/06/18 11:17:49;;;;;;;2.63;0.80;;;31.20;99.90;;;;;;8371209;28;20189;-69
2022/06/18 11:21:50;;;;;;;1.33;0.77;;;31.30;99.90;;;;;;8369093;28;20192;-66
2022/06/18 11:25:57;;;;;;;1.67;1.10;;;31.30;99.90;;;;;;8367187;28;20259;-69
2022/06/18 11:29:58;;;;;;;1.60;0.70;;;31.00;99.90;;;;;;8371151;28;20203;-70
2022/06/18 11:34:05;;;;;;;1.75;0.85;;;31.20;99.90;;;;;;8380323;28;20198;-67
2022/06/18 11:38:26;;;;;;;1.20;0.80;;;31.20;99.90;;;;;;8369086;28;20521;-67
2022/06/18 11:42:46;;;;;;;1.15;0.90;;;31.40;99.90;;;;;;8370310;28;20264;-67
2022/06/18 11:47:18;;;;;;;2.80;0.98;;;31.70;99.90;;;;;;8370043;28;20248;-67
2022/06/18 11:51:44;;;;;;;5.65;0.90;;;31.90;99.90;;;;;;8363789;28;20197;-66
2022/06/18 11:55:54;;;;;;;1.95;0.90;;;31.80;99.90;;;;;;8370438;28;20236;-65
2022/06/18 12:00:07;;;;;;;5.40;1.00;;;31.20;99.90;;;;;;8373716;28;20183;-66
2022/06/18 12:04:26;;;;;;;1.38;0.90;;;31.00;99.90;;;;;;8375484;28;20213;-66
2022/06/18 12:08:28;;;;;;;4.53;0.95;;;31.30;99.90;;;;;;8367756;28;20245;-64
2022/06/18 12:13:06;;;;;;;2.38;1.00;;;31.50;99.90;;;;;;8371967;28;20181;-67
2022/06/18 12:17:17;;;;;;;5.95;0.95;;;31.60;99.90;;;;;;8375467;28;20307;-66
2022/06/18 12:21:30;;;;;;;1.33;0.90;;;31.80;99.90;;;;;;8371503;28;20185;-67
2022/06/18 12:25:43;;;;;;;3.35;1.38;;;31.80;99.90;;;;;;8367706;28;20316;-70
2022/06/18 12:30:22;;;;;;;1.40;1.10;;;31.90;99.90;;;;;;8367836;28;20225;-69
2022/06/18 12:34:49;;;;;;;1.92;0.90;;;31.80;99.90;;;;;;8370521;28;20201;-67
2022/06/18 12:39:23;;;;;;;2.70;1.13;;;32.00;99.90;;;;;;8361889;28;20192;-66
2022/06/18 12:43:49;;;;;;;2.35;1.05;;;32.10;99.90;;;;;;8374043;28;20220;-65
2022/06/18 12:48:05;;;;;;;2.55;1.00;;;32.10;99.90;;;;;;8377670;28;20177;-67
2022/06/18 12:52:30;;;;;;;2.95;1.10;;;31.90;99.90;;;;;;8368756;28;20203;-67
2022/06/18 12:56:53;;;;;;;3.90;1.02;;;32.10;99.90;;;;;;8373112;28;20239;-68
2022/06/18 13:01:01;;;;;;;2.17;0.93;;;32.30;99.90;;;;;;8380081;28;20189;-69
2022/06/18 13:05:30;;;;;;;2.42;0.95;;;32.50;99.90;;;;;;8368891;28;20270;-68
2022/06/18 13:09:43;;;;;;;4.78;1.30;;;32.50;99.90;;;;;;8367614;28;20629;-67
2022/06/18 13:13:53;;;;;;;2.63;0.88;;;32.50;99.90;;;;;;8365557;28;20186;-72
2022/06/18 13:18:36;;;;;;;4.57;1.10;;;32.70;99.90;;;;;;8373497;28;20192;-71
2022/06/18 13:22:38;;;;;;;1.30;0.90;;;32.70;99.90;;;;;;8354666;28;20251;-66
2022/06/18 13:32:03;;;;;;;2.35;1.30;;;32.70;99.90;;;;;;8365153;28;20232;-65
2022/06/18 13:36:16;;;;;;;2.13;1.02;;;32.70;99.90;;;;;;8373397;28;20479;-65
2022/06/18 13:40:22;;;;;;;1.25;1.02;;;32.60;99.90;;;;;;8368896;28;20182;-66
2022/06/18 13:44:48;;;;;;;1.13;1.02;;;32.70;99.90;;;;;;8373334;28;20220;-67
2022/06/18 13:49:13;;;;;;;1.92;1.08;;;32.80;99.90;;;;;;8361173;28;20213;-64
2022/06/18 13:53:28;;;;;;;2.33;1.10;;;32.90;99.90;;;;;;8370380;28;20269;-68
2022/06/18 13:57:37;;;;;;;2.47;0.95;;;32.90;99.90;;;;;;8362084;28;20186;-68
2022/06/18 14:01:49;;;;;;;2.20;1.25;;;32.90;99.90;;;;;;8378804;28;20200;-68
2022/06/18 14:05:57;;;;;;;2.30;1.17;;;32.90;99.90;;;;;;8370515;28;20210;-67
2022/06/18 14:09:59;;;;;;;1.92;1.20;;;33.00;99.90;;;;;;8373749;28;20594;-68
2022/06/18 14:14:05;;;;;;;2.80;0.90;;;33.00;99.90;;;;;;8364161;28;20200;-68
2022/06/18 14:18:17;;;;;;;5.38;1.17;;;32.80;99.90;;;;;;8363215;28;20192;-66
2022/06/18 14:22:18;;;;;;;3.38;1.13;;;32.80;99.90;;;;;;8360583;28;20181;-68
2022/06/18 14:26:20;;;;;;;4.28;1.00;;;32.70;99.90;;;;;;8362171;28;20220;-66
2022/06/18 14:30:42;;;;;;;2.47;1.30;;;32.80;99.90;;;;;;8360969;28;20209;-64
2022/06/18 14:34:46;;;;;;;3.63;1.15;;;32.80;99.90;;;;;;8364311;28;20190;-65
2022/06/18 14:38:49;;;;;;;2.15;1.10;;;32.90;99.90;;;;;;8365818;28;20222;-69
2022/06/18 14:43:26;;;;;;;3.33;1.23;;;33.10;99.90;;;;;;8369151;28;20218;-70
2022/06/18 14:47:39;;;;;;;3.63;1.13;;;33.10;99.90;;;;;;8363316;28;20189;-66
2022/06/18 14:51:52;;;;;;;1.70;0.88;;;33.10;99.90;;;;;;8374253;28;20181;-65
2022/06/18 14:56:33;;;;;;;4.43;1.17;;;33.20;99.90;;;;;;8370491;28;20275;-66
2022/06/18 15:00:45;;;;;;;4.57;0.95;;;33.30;99.90;;;;;;8306251;28;20269;-66
2022/06/18 15:04:56;;;;;;;6.03;1.50;;;33.30;99.90;;;;;;8333481;28;20224;-68
2022/06/18 15:08:59;;;;;;;1.98;1.10;;;33.20;99.90;;;;;;8370301;28;20180;-65
2022/06/18 15:13:00;;;;;;;6.00;1.40;;;33.20;99.90;;;;;;8369470;28;20216;-65
2022/06/18 15:21:57;;;;;;;5.30;1.20;;;33.20;99.90;;;;;;8365869;28;20198;-69
2022/06/18 15:26:06;;;;;;;3.67;0.98;;;33.20;99.90;;;;;;8372173;28;20247;-69
2022/06/18 15:30:38;;;;;;;2.60;1.50;;;33.30;99.90;;;;;;8367622;28;20225;-67
2022/06/18 15:34:39;;;;;;;5.70;1.20;;;33.40;99.90;;;;;;8370294;28;20310;-68
2022/06/18 15:38:40;;;;;;;2.15;1.20;;;33.50;99.90;;;;;;8372009;28;20184;-66
2022/06/18 15:42:44;;;;;;;4.32;1.50;;;33.40;99.90;;;;;;8375136;28;20182;-68
2022/06/18 15:46:54;;;;;;;4.40;1.30;;;33.40;99.90;;;;;;8368123;28;20251;-69
2022/06/18 15:51:17;;;;;;;2.38;0.93;;;33.40;99.90;;;;;;8370701;28;20264;-66
2022/06/18 15:55:29;;;;;;;4.03;1.15;;;33.40;99.90;;;;;;8374905;28;20238;-65
2022/06/18 15:59:31;;;;;;;3.72;1.40;;;33.40;99.90;;;;;;8369458;28;20178;-64
2022/06/18 16:03:32;;;;;;;2.65;1.10;;;33.50;99.90;;;;;;8367973;28;20301;-67
2022/06/18 16:07:57;;;;;;;2.70;1.23;;;33.50;99.90;;;;;;8370680;28;20181;-67
2022/06/18 16:12:26;;;;;;;3.45;1.02;;;33.50;99.90;;;;;;8373260;28;20222;-65
2022/06/18 16:16:34;;;;;;;4.63;1.30;;;33.60;99.90;;;;;;8374208;28;20205;-67
2022/06/18 16:20:35;;;;;;;5.47;1.52;;;33.60;99.90;;;;;;8369792;28;20220;-67
2022/06/18 16:24:36;;;;;;;4.32;1.30;;;33.60;99.90;;;;;;8367697;28;20202;-67
2022/06/18 16:28:39;;;;;;;7.63;2.00;;;33.60;99.90;;;;;;8369571;28;20224;-69
2022/06/18 16:32:45;;;;;;;3.47;1.60;;;33.60;99.90;;;;;;8365989;28;20181;-67
2022/06/18 16:37:21;;;;;;;8.50;1.58;;;33.60;99.90;;;;;;8371319;28;20177;-66
2022/06/18 16:41:44;;;;;;;2.13;1.15;;;33.60;99.90;;;;;;8366177;28;20186;-68
2022/06/18 16:45:47;;;;;;;3.25;1.60;;;33.70;99.90;;;;;;8367820;28;20629;-70
2022/06/18 16:49:58;;;;;;;3.75;1.50;;;33.70;99.90;;;;;;8365241;28;20170;-69
2022/06/18 16:54:02;;;;;;;6.18;1.88;;;33.80;99.90;;;;;;8363042;28;20260;-68
2022/06/18 16:58:16;;;;;;;5.13;1.88;;;33.80;99.90;;;;;;8368488;28;20192;-66
2022/06/18 17:02:17;;;;;;;5.90;1.90;;;33.80;99.90;;;;;;8371856;28;20197;-71
2022/06/18 17:06:18;;;;;;;10.73;2.20;;;33.80;99.90;;;;;;8368127;28;20213;-68
2022/06/18 17:10:23;;;;;;;10.27;2.00;;;33.80;99.90;;;;;;8370976;28;20188;-68
2022/06/18 17:14:25;;;;;;;9.43;4.05;;;33.80;99.90;;;;;;8368026;28;20268;-67
2022/06/18 17:18:26;;;;;;;7.32;2.15;;;34.10;99.90;;;;;;8372253;28;20224;-66
2022/06/18 17:22:27;;;;;;;9.32;1.58;;;34.40;99.90;;;;;;8366619;28;20188;-67
2022/06/18 17:35:08;;;;;;;4.63;1.70;;;35.40;99.90;;;;;;8367588;28;20232;-67
2022/06/18 17:39:13;;;;;;;4.80;1.40;;;35.70;99.90;;;;;;8366501;28;20268;-68
2022/06/18 17:43:16;;;;;;;3.08;1.50;;;35.80;99.90;;;;;;8367393;28;20213;-68
2022/06/18 17:47:18;;;;;;;5.07;2.17;;;36.00;99.90;;;;;;8366696;28;20188;-68
2022/06/18 17:51:19;;;;;;;4.00;2.00;;;36.10;99.90;;;;;;8364307;28;20188;-67
2022/06/18 17:55:20;;;;;;;3.83;1.80;;;36.10;99.90;;;;;;8367659;28;20210;-67
2022/06/18 17:59:21;;;;;;;4.80;2.60;;;36.00;99.90;;;;;;8373201;28;20199;-68
2022/06/18 18:03:23;;;;;;;5.20;2.10;;;35.70;99.90;;;;;;8365005;28;20200;-68
2022/06/18 18:07:26;;;;;;;6.70;1.85;;;35.50;99.90;;;;;;8363890;28;20228;-65
2022/06/18 18:11:42;;;;;;;3.72;1.70;;;35.30;99.90;;;;;;8368337;28;20196;-68
2022/06/18 18:15:43;;;;;;;5.10;1.33;;;35.00;99.90;;;;;;8364639;28;20209;-67
2022/06/18 18:19:43;;;;;;;6.07;1.35;;;34.60;99.90;;;;;;8361406;28;20189;-69
2022/06/18 18:23:44;;;;;;;4.25;1.73;;;34.30;99.90;;;;;;8365249;28;20189;-65
2022/06/18 18:27:51;;;;;;;3.47;1.20;;;33.80;99.90;;;;;;8367565;28;20228;-67
2022/06/18 18:31:55;;;;;;;2.67;1.50;;;33.40;99.90;;;;;;8373887;28;20332;-67
2022/06/18 18:35:55;;;;;;;2.50;1.17;;;32.90;99.90;;;;;;8374352;28;20201;-64
2022/06/18 18:39:56;;;;;;;2.70;1.23;;;32.40;99.90;;;;;;8370811;28;20238;-65
2022/06/18 18:43:58;;;;;;;1.63;1.00;;;31.90;99.90;;;;;;8368993;28;20180;-66
2022/06/18 18:47:59;;;;;;;3.03;1.27;;;31.30;99.90;;;;;;8370281;28;20177;-64
2022/06/18 18:52:00;;;;;;;4.18;1.52;;;30.80;99.90;;;;;;8369462;28;20178;-65
2022/06/18 18:56:01;;;;;;;2.45;1.38;;;30.40;99.90;;;;;;8366171;28;20201;-66
2022/06/18 19:00:03;;;;;;;4.22;1.73;;;29.80;99.90;;;;;;8370918;28;20189;-65
2022/06/18 19:04:04;;;;;;;3.10;1.08;;;29.40;99.90;;;;;;8369682;28;20201;-65
2022/06/18 19:08:05;;;;;;;3.70;1.60;;;29.00;99.90;;;;;;8365750;28;20292;-65
2022/06/18 19:16:26;;;;;;;2.95;1.30;;;28.20;1.00;;;;;;8369459;28;20252;-66
2022/06/18 19:20:27;;;;;;;4.47;1.65;;;27.80;1.00;;;;;;8373882;28;20177;-65
2022/06/18 19:24:28;;;;;;;3.05;1.52;;;27.50;1.00;;;;;;8365723;28;20186;-65
2022/06/18 19:28:34;;;;;;;4.63;1.70;;;27.30;1.00;;;;;;8367056;28;20209;-65
2022/06/18 19:32:35;;;;;;;3.47;1.60;;;27.00;1.00;;;;;;8362101;28;20182;-66
2022/06/18 19:36:38;;;;;;;4.73;1.70;;;26.80;1.00;;;;;;8368671;28;20229;-65
2022/06/18 19:40:39;;;;;;;5.20;2.00;;;26.60;1.00;;;;;;8366740;28;20178;-65
2022/06/18 19:44:40;;;;;;;3.53;1.73;;;26.40;1.00;;;;;;8367569;28;20204;-65
2022/06/18 19:48:45;;;;;;;3.47;1.93;;;26.20;1.00;;;;;;8371010;28;20268;-65
2022/06/18 19:52:46;;;;;;;4.70;1.97;;;26.10;1.00;;;;;;8364855;28;20182;-64
2022/06/18 19:56:47;;;;;;;2.93;1.77;;;26.00;1.00;;;;;;8367702;28;20217;-64
2022/06/18 20:00:48;;;;;;;4.50;1.70;;;25.80;1.00;;;;;;8368654;28;20186;-66
2022/06/18 20:04:50;;;;;;;4.70;1.93;;;25.60;1.00;;;;;;8369378;28;20209;-65
2022/06/18 20:08:52;;;;;;;4.70;2.47;;;25.50;1.00;;;;;;8366242;28;20510;-65
2022/06/18 20:12:53;;;;;;;4.50;2.13;;;25.30;1.00;;;;;;8365525;28;20539;-64
2022/06/18 20:16:53;;;;;;;5.93;2.57;;;25.10;1.00;;;;;;8367183;28;20220;-65
2022/06/18 20:20:56;;;;;;;4.17;1.83;;;25.00;1.00;;;;;;8369538;28;20199;-65
2022/06/18 20:24:57;;;;;;;4.67;1.93;;;24.80;1.00;;;;;;8367821;28;20177;-65
2022/06/18 20:28:58;;;;;;;3.17;1.97;;;24.60;1.00;;;;;;8364518;28;20209;-65
2022/06/18 20:33:01;;;;;;;3.57;1.70;;;24.50;15.50;;;;;;8364818;28;20181;-64
2022/06/18 20:37:02;;;;;;;4.63;2.23;;;24.40;33.20;;;;;;8370901;28;20263;-65
2022/06/18 20:41:08;;;;;;;8.40;2.43;;;24.40;27.70;;;;;;8367936;28;20184;-65
2022/06/18 20:45:09;;;;;;;4.70;2.10;;;24.20;37.90;;;;;;8369230;28;20202;-66
2022/06/18 20:49:10;;;;;;;6.20;2.10;;;24.20;46.60;;;;;;8369717;28;20192;-65
2022/06/18 20:53:12;;;;;;;5.63;2.13;;;24.10;56.10;;;;;;8366128;28;20181;-64
2022/06/18 20:57:16;;;;;;;3.93;2.17;;;24.00;92.10;;;;;;8365714;28;20189;-64
2022/06/18 21:01:18;;;;;;;6.10;2.07;;;23.90;92.40;;;;;;8371281;28;20179;-65
2022/06/18 21:05:20;;;;;;;7.00;2.23;;;23.90;99.90;;;;;;8375295;28;20202;-64
2022/06/18 21:09:21;;;;;;;4.70;1.97;;;23.80;98.00;;;;;;8362528;28;20264;-63
2022/06/18 21:13:22;;;;;;;5.47;2.37;;;23.70;90.80;;;;;;8362172;28;20210;-64
2022/06/18 21:17:23;;;;;;;4.57;2.33;;;23.70;81.80;;;;;;8369698;28;20192;-65
2022/06/18 21:21:24;;;;;;;4.30;2.20;;;23.70;87.50;;;;;;8362583;28;20185;-64
2022/06/18 21:25:25;;;;;;;5.37;2.43;;;23.60;84.90;;;;;;8369011;28;20186;-65
2022/06/18 21:29:27;;;;;;;4.10;2.13;;;23.60;72.10;;;;;;8361668;28;20292;-64
2022/06/18 21:37:47;;;;;;;4.50;2.60;;;23.60;68.10;;;;;;8365057;28;20443;-63
2022/06/18 21:41:48;;;;;;;6.83;3.23;;;23.50;89.40;;;;;;8364497;28;20178;-63
2022/06/18 21:45:49;;;;;;;4.60;2.80;;;23.50;62.10;;;;;;8370453;28;20178;-63
2022/06/18 21:49:50;;;;;;;3.83;2.67;;;23.50;63.30;;;;;;8370452;28;20192;-64
2022/06/18 21:53:51;;;;;;;3.33;2.77;;;23.50;62.60;;;;;;8364229;28;20206;-63
2022/06/18 21:57:57;;;;;;;4.43;2.57;;;23.40;65.30;;;;;;8368735;28;20181;-64
2022/06/18 22:01:58;;;;;;;6.23;2.90;;;23.40;65.50;;;;;;8363461;28;20196;-63
2022/06/18 22:05:58;;;;;;;4.37;2.67;;;23.40;57.10;;;;;;8364975;28;20176;-64